createdAt,value
2019-02-06T00:00:55.463Z,79.40
2019-02-06T00:03:26.169Z,78.60
2019-02-06T00:05:56.698Z,79.30
2019-02-06T00:08:26.934Z,78.60
2019-02-06T00:10:59.204Z,77.80
2019-02-06T00:13:30.138Z,79.50
2019-02-06T00:16:00.356Z,79.20
2019-02-06T00:18:31.294Z,77.30
2019-02-06T00:21:01.476Z,77.90
2019-02-06T00:23:32.849Z,76.70
2019-02-06T00:26:02.988Z,75.80
2019-02-06T00:28:33.654Z,74.10
2019-02-06T00:31:03.811Z,73.20
2019-02-06T00:33:34.145Z,74.50
2019-02-06T00:36:05.801Z,72.00
2019-02-06T00:38:37.665Z,74.50
2019-02-06T00:41:10.408Z,74.60
2019-02-06T00:43:41.095Z,73.80
2019-02-06T00:46:11.272Z,73.20
2019-02-06T00:48:41.435Z,74.70
2019-02-06T00:51:13.507Z,74.60
2019-02-06T00:53:44.520Z,76.30
2019-02-06T00:56:14.666Z,74.80
2019-02-06T00:58:45.315Z,75.20
2019-02-06T01:01:16.516Z,75.40
2019-02-06T01:03:46.647Z,74.80
2019-02-06T01:06:16.959Z,76.60
2019-02-06T01:08:47.996Z,77.70
2019-02-06T01:11:18.861Z,74.40
2019-02-06T01:13:49.030Z,72.70
2019-02-06T01:16:19.176Z,73.50
2019-02-06T01:18:49.602Z,73.80
2019-02-06T01:21:19.775Z,75.10
2019-02-06T01:23:50.083Z,73.50
2019-02-06T01:26:20.217Z,74.40
2019-02-06T01:28:50.814Z,76.90
2019-02-06T01:31:24.380Z,78.00
2019-02-06T01:33:55.762Z,76.10
2019-02-06T01:36:26.255Z,76.50
2019-02-06T01:38:56.487Z,78.40
2019-02-06T01:41:27.758Z,78.40
2019-02-06T01:44:05.554Z,76.50
2019-02-06T01:46:36.347Z,74.20
2019-02-06T01:49:06.834Z,74.50
2019-02-06T01:51:37.921Z,74.60
2019-02-06T01:54:08.279Z,74.20
2019-02-06T01:56:38.422Z,76.10
2019-02-06T01:59:09.477Z,73.00
2019-02-06T02:01:40.963Z,73.70
2019-02-06T02:04:12.238Z,73.00
2019-02-06T02:06:44.811Z,74.30
2019-02-06T02:09:21.002Z,74.70
2019-02-06T02:11:53.086Z,73.30
2019-02-06T02:14:23.243Z,73.40
2019-02-06T02:16:53.429Z,73.10
2019-02-06T02:19:23.559Z,72.80
2019-02-06T02:21:53.708Z,74.20
2019-02-06T02:24:23.916Z,73.80
2019-02-06T02:26:54.179Z,72.60
2019-02-06T02:29:25.108Z,73.30
2019-02-06T02:31:56.923Z,73.20
2019-02-06T02:34:28.056Z,73.20
2019-02-06T02:36:58.769Z,76.20
2019-02-06T02:39:33.334Z,73.00
2019-02-06T02:42:04.005Z,73.20
2019-02-06T02:44:34.324Z,73.90
2019-02-06T02:47:04.731Z,72.40
2019-02-06T02:49:34.980Z,72.40
2019-02-06T02:52:05.183Z,72.50
2019-02-06T02:54:37.697Z,71.70
2019-02-06T02:57:08.158Z,71.90
2019-02-06T02:59:40.600Z,71.40
2019-02-06T03:02:38.491Z,69.20
2019-02-06T03:05:13.291Z,68.50
2019-02-06T03:07:48.282Z,69.30
2019-02-06T03:10:18.518Z,70.50
2019-02-06T03:12:52.246Z,72.80
2019-02-06T03:15:23.417Z,75.30
2019-02-06T03:17:53.674Z,74.50
2019-02-06T03:20:24.008Z,74.10
2019-02-06T03:22:54.202Z,75.50
2019-02-06T03:25:24.476Z,74.70
2019-02-06T03:27:55.215Z,72.30
2019-02-06T03:30:25.863Z,70.40
2019-02-06T03:32:56.862Z,70.40
2019-02-06T03:35:32.333Z,71.80
2019-02-06T03:38:02.801Z,71.80
2019-02-06T03:40:35.857Z,73.60
2019-02-06T03:43:06.055Z,73.40
2019-02-06T03:45:36.289Z,72.50
2019-02-06T03:48:06.590Z,73.20
2019-02-06T03:50:41.547Z,71.30
2019-02-06T03:53:12.584Z,71.00
2019-02-06T03:55:46.543Z,72.20
2019-02-06T03:58:19.809Z,73.10
2019-02-06T04:00:51.260Z,71.00
2019-02-06T04:03:23.622Z,70.90
2019-02-06T04:05:53.724Z,70.90
2019-02-06T04:08:24.080Z,70.80
2019-02-06T04:10:55.121Z,70.40
2019-02-06T04:13:26.808Z,70.80
2019-02-06T04:15:56.956Z,70.80
2019-02-06T04:18:28.991Z,72.30
2019-02-06T04:20:59.731Z,70.20
2019-02-06T04:23:29.863Z,67.40
2019-02-06T04:26:00.330Z,67.80
2019-02-06T04:28:32.529Z,69.20
2019-02-06T04:31:02.666Z,69.70
2019-02-06T04:33:32.878Z,70.80
2019-02-06T04:36:03.549Z,73.10
2019-02-06T04:38:34.075Z,72.10
2019-02-06T04:41:05.182Z,67.70
2019-02-06T04:43:36.421Z,65.90
2019-02-06T04:46:15.432Z,67.80
2019-02-06T04:48:50.451Z,70.60
2019-02-06T04:51:20.213Z,72.80
2019-02-06T04:53:50.615Z,70.70
2019-02-06T04:56:21.847Z,70.70
2019-02-06T04:58:52.049Z,70.30
2019-02-06T05:01:22.156Z,72.40
2019-02-06T05:03:52.345Z,68.90
2019-02-06T05:06:23.317Z,66.30
2019-02-06T05:08:53.503Z,68.40
2019-02-06T05:11:23.739Z,68.50
2019-02-06T05:13:54.479Z,68.40
2019-02-06T05:16:24.738Z,68.80
2019-02-06T05:18:56.736Z,69.50
2019-02-06T05:21:26.986Z,68.70
2019-02-06T05:23:57.203Z,67.60
2019-02-06T05:26:27.328Z,66.30
2019-02-06T05:28:57.883Z,65.90
2019-02-06T05:31:28.091Z,66.70
2019-02-06T05:33:58.309Z,67.40
2019-02-06T05:36:33.632Z,67.80
2019-02-06T05:39:08.318Z,69.60
2019-02-06T05:41:39.086Z,68.00
2019-02-06T05:44:10.265Z,67.20
2019-02-06T05:46:40.812Z,66.10
2019-02-06T05:49:11.337Z,67.60
2019-02-06T05:51:41.490Z,68.00
2019-02-06T05:54:11.843Z,67.70
2019-02-06T05:56:42.003Z,67.30
2019-02-06T05:59:13.117Z,69.00
2019-02-06T06:01:45.935Z,67.40
2019-02-06T06:04:16.139Z,67.50
2019-02-06T06:06:47.332Z,68.60
2019-02-06T06:09:18.944Z,69.20
2019-02-06T06:11:51.406Z,69.20
2019-02-06T06:14:21.606Z,70.50
2019-02-06T06:16:52.091Z,68.60
2019-02-06T06:19:22.198Z,68.20
2019-02-06T06:21:52.612Z,69.70
2019-02-06T06:24:25.398Z,70.20
2019-02-06T06:26:57.312Z,66.90
2019-02-06T06:29:28.885Z,65.50
2019-02-06T06:31:59.534Z,65.40
2019-02-06T06:34:29.870Z,67.00
2019-02-06T06:37:00.226Z,68.10
2019-02-06T06:39:30.402Z,68.00
2019-02-06T06:42:02.556Z,68.70
2019-02-06T06:44:32.814Z,67.40
2019-02-06T06:47:04.553Z,68.30
2019-02-06T06:49:36.539Z,69.50
2019-02-06T06:52:06.772Z,68.00
2019-02-06T06:54:37.021Z,66.40
2019-02-06T06:57:07.260Z,65.70
2019-02-06T06:59:37.415Z,65.70
2019-02-06T07:02:07.555Z,65.90
2019-02-06T07:04:40.738Z,66.20
2019-02-06T07:07:10.915Z,67.10
2019-02-06T07:09:41.141Z,67.60
2019-02-06T07:12:30.355Z,69.20
2019-02-06T07:15:05.526Z,65.00
2019-02-06T07:17:36.893Z,65.40
2019-02-06T07:20:08.583Z,66.80
2019-02-06T07:22:39.989Z,67.30
2019-02-06T07:25:10.390Z,67.60
2019-02-06T07:27:40.919Z,65.20
2019-02-06T07:30:18.603Z,64.90
2019-02-06T07:32:48.850Z,64.90
2019-02-06T07:35:19.228Z,65.60
2019-02-06T07:37:49.408Z,64.20
2019-02-06T07:40:20.369Z,65.20
2019-02-06T07:42:52.346Z,63.30
2019-02-06T07:45:24.634Z,61.20
2019-02-06T07:47:57.602Z,61.70
2019-02-06T07:50:30.615Z,61.80
2019-02-06T07:53:01.640Z,61.80
2019-02-06T07:55:31.802Z,61.70
2019-02-06T07:58:02.197Z,62.60
2019-02-06T08:00:32.310Z,62.10
2019-02-06T08:03:02.605Z,62.50
2019-02-06T08:05:32.769Z,62.20
2019-02-06T08:08:02.901Z,62.70
2019-02-06T08:10:34.462Z,62.30
2019-02-06T08:13:06.084Z,63.10
2019-02-06T08:15:37.529Z,64.00
2019-02-06T08:18:08.294Z,63.20
2019-02-06T08:20:39.688Z,63.70
2019-02-06T08:23:12.502Z,63.80
2019-02-06T08:25:42.736Z,63.30
2019-02-06T08:28:13.006Z,62.90
2019-02-06T08:30:44.038Z,64.00
2019-02-06T08:33:15.141Z,63.10
2019-02-06T08:35:47.258Z,63.10
2019-02-06T08:38:17.509Z,63.20
2019-02-06T08:40:49.844Z,62.90
2019-02-06T08:43:20.063Z,61.90
2019-02-06T08:45:50.642Z,61.50
2019-02-06T08:48:20.843Z,61.40
2019-02-06T08:50:53.259Z,60.80
2019-02-06T08:53:23.629Z,60.10
2019-02-06T08:55:54.606Z,59.90
2019-02-06T08:58:25.127Z,59.30
2019-02-06T09:00:56.560Z,59.40
2019-02-06T09:03:26.730Z,59.60
2019-02-06T09:05:59.668Z,59.60
2019-02-06T09:08:30.017Z,59.30
2019-02-06T09:11:00.190Z,59.70
2019-02-06T09:13:31.008Z,59.80
2019-02-06T09:16:01.265Z,57.90
2019-02-06T09:18:31.441Z,54.90
2019-02-06T09:21:01.618Z,53.60
2019-02-06T09:23:31.751Z,50.10
2019-02-06T09:26:01.881Z,49.60
2019-02-06T09:28:32.491Z,46.30
2019-02-06T09:31:02.622Z,44.50
2019-02-06T09:33:32.805Z,40.70
2019-02-06T09:36:03.081Z,41.30
2019-02-06T09:38:33.286Z,37.70
2019-02-06T09:41:03.501Z,37.00
2019-02-06T09:43:33.839Z,37.20
2019-02-06T09:46:03.920Z,33.90
2019-02-06T09:48:34.075Z,34.40
2019-02-06T09:51:04.220Z,30.00
2019-02-06T09:53:34.541Z,31.10
2019-02-06T09:56:05.051Z,31.30
2019-02-06T09:58:35.164Z,30.00
2019-02-06T10:01:05.349Z,30.80
2019-02-06T10:03:35.464Z,28.70
2019-02-06T10:06:05.756Z,27.50
2019-02-06T10:11:05.765Z,27.20
2019-02-06T10:13:36.102Z,25.60
2019-02-06T10:16:06.418Z,23.80
2019-02-06T10:18:36.639Z,23.90
2019-02-06T10:21:08.198Z,22.10
2019-02-06T10:23:38.621Z,22.10
2019-02-06T10:26:09.146Z,24.10
2019-02-06T10:28:39.332Z,24.20
2019-02-06T10:31:09.497Z,21.20
2019-02-06T10:33:39.612Z,20.80
2019-02-06T10:36:09.838Z,20.60
2019-02-06T10:38:39.959Z,22.60
2019-02-06T10:41:10.194Z,22.80
2019-02-06T10:43:40.398Z,21.40
2019-02-06T10:46:10.547Z,21.50
2019-02-06T10:48:40.666Z,22.10
2019-02-06T10:51:11.342Z,21.60
2019-02-06T10:53:42.107Z,21.60
2019-02-06T10:56:12.326Z,22.10
2019-02-06T10:58:42.575Z,21.70
2019-02-06T11:01:12.785Z,20.00
2019-02-06T11:03:43.006Z,21.50
2019-02-06T11:06:13.553Z,20.10
2019-02-06T11:08:47.875Z,21.10
2019-02-06T11:11:18.139Z,20.40
2019-02-06T11:13:49.837Z,20.20
2019-02-06T11:16:23.179Z,19.20
2019-02-06T11:18:53.305Z,19.00
2019-02-06T11:21:24.219Z,16.50
2019-02-06T11:23:54.404Z,18.20
2019-02-06T11:26:24.736Z,18.80
2019-02-06T11:28:54.851Z,18.80
2019-02-06T11:31:25.115Z,17.70
2019-02-06T11:33:55.323Z,17.80
2019-02-06T11:36:25.564Z,16.90
2019-02-06T11:38:56.936Z,17.10
2019-02-06T11:41:27.093Z,17.60
2019-02-06T11:43:57.321Z,16.60
2019-02-06T11:46:27.467Z,17.10
2019-02-06T11:48:59.662Z,16.40
2019-02-06T11:51:29.855Z,15.80
2019-02-06T11:54:00.118Z,16.40
2019-02-06T11:56:30.466Z,16.80
2019-02-06T11:59:00.591Z,15.10
2019-02-06T12:01:40.853Z,14.90
2019-02-06T12:04:11.260Z,16.20
2019-02-06T12:06:41.388Z,15.60
2019-02-06T12:09:13.740Z,15.80
2019-02-06T12:11:43.836Z,15.20
2019-02-06T12:14:14.557Z,15.00
2019-02-06T12:16:44.830Z,15.40
2019-02-06T12:19:15.128Z,15.60
2019-02-06T12:21:45.265Z,15.70
2019-02-06T12:24:15.457Z,14.40
2019-02-06T12:26:46.015Z,13.10
2019-02-06T12:29:16.551Z,12.70
2019-02-06T12:31:46.779Z,12.80
2019-02-06T12:34:17.726Z,12.20
2019-02-06T12:36:53.105Z,11.90
2019-02-06T12:39:24.832Z,12.20
2019-02-06T12:41:57.587Z,12.50
2019-02-06T12:44:28.977Z,12.80
2019-02-06T12:46:59.830Z,13.00
2019-02-06T12:49:29.986Z,13.00
2019-02-06T12:52:00.154Z,13.00
2019-02-06T12:54:30.298Z,13.00
2019-02-06T12:57:03.559Z,11.50
2019-02-06T12:59:37.483Z,12.70
2019-02-06T13:02:09.822Z,12.70
2019-02-06T13:04:39.980Z,11.80
2019-02-06T13:07:11.378Z,12.00
2019-02-06T13:09:43.647Z,11.40
2019-02-06T13:12:13.790Z,12.40
2019-02-06T13:14:43.977Z,12.40
2019-02-06T13:17:15.521Z,13.10
2019-02-06T13:19:45.718Z,13.50
2019-02-06T13:22:15.840Z,13.10
2019-02-06T13:24:52.168Z,12.40
2019-02-06T13:27:23.501Z,13.30
2019-02-06T13:29:53.647Z,12.80
2019-02-06T13:32:25.572Z,12.90
2019-02-06T13:34:55.922Z,12.60
2019-02-06T13:37:26.553Z,12.20
2019-02-06T13:39:56.996Z,11.70
2019-02-06T13:42:27.319Z,11.70
2019-02-06T13:44:57.951Z,10.40
2019-02-06T13:47:28.228Z,10.00
2019-02-06T13:49:58.783Z,10.10
2019-02-06T13:52:29.015Z,10.40
2019-02-06T13:54:59.267Z,10.20
2019-02-06T13:57:33.703Z,9.10
2019-02-06T14:00:01.278Z,9.20
2019-02-06T14:02:31.970Z,10.70
2019-02-06T14:05:02.625Z,9.40
2019-02-06T14:07:32.912Z,8.80
2019-02-06T14:10:03.246Z,7.00
2019-02-06T14:12:36.556Z,6.00
2019-02-06T14:15:08.971Z,5.60
2019-02-06T14:17:40.853Z,6.30
2019-02-06T14:24:27.946Z,4.10
2019-02-06T14:27:35.228Z,4.80
2019-02-06T14:38:24.493Z,6.40
2019-02-06T14:41:46.935Z,5.60
2019-02-06T14:45:40.092Z,5.70
2019-02-06T14:56:22.130Z,3.80
2019-02-06T14:59:46.843Z,3.10
2019-02-06T15:03:15.644Z,3.00
2019-02-06T15:13:46.422Z,4.40
2019-02-06T15:17:01.205Z,5.30
2019-02-06T15:20:24.300Z,6.50
2019-02-06T15:23:48.616Z,7.70
2019-02-06T15:27:06.495Z,8.60
2019-02-06T15:30:40.272Z,10.90
2019-02-06T15:34:26.654Z,11.50
2019-02-06T15:38:06.243Z,13.10
2019-02-06T15:41:53.683Z,14.00
2019-02-06T15:45:31.748Z,14.40
2019-02-06T15:50:32.469Z,15.00
2019-02-06T15:52:11.763Z,14.50
2019-02-06T15:55:29.590Z,14.80
2019-02-06T15:58:51.790Z,13.40
2019-02-06T16:01:51.863Z,13.60
2019-02-06T16:05:36.915Z,14.80
2019-02-06T16:08:59.936Z,18.40
2019-02-06T16:11:42.852Z,20.60
2019-02-06T16:14:59.923Z,22.80
2019-02-06T16:18:02.679Z,24.90
2019-02-06T16:21:07.936Z,26.80
2019-02-06T16:24:09.183Z,29.50
2019-02-06T16:27:16.066Z,30.40
2019-02-06T16:30:20.711Z,32.30
2019-02-06T16:33:04.990Z,33.70
2019-02-06T16:36:07.929Z,32.50
2019-02-06T16:38:51.509Z,32.70
2019-02-06T16:41:57.446Z,33.50
2019-02-06T16:44:48.115Z,34.60
2019-02-06T16:47:46.082Z,36.70
2019-02-06T16:50:34.236Z,37.10
2019-02-06T16:53:56.447Z,38.30
2019-02-06T16:57:11.505Z,39.50
2019-02-06T17:00:27.863Z,40.50
2019-02-06T17:03:36.890Z,40.80
2019-02-06T17:06:41.202Z,43.00
2019-02-06T17:10:02.103Z,44.10
2019-02-06T17:13:01.618Z,46.10
2019-02-06T17:16:16.334Z,44.20
2019-02-06T17:18:58.088Z,43.60
2019-02-06T17:22:01.434Z,44.20
2019-02-06T17:25:25.777Z,45.60
2019-02-06T17:28:25.994Z,46.30
2019-02-06T17:31:32.736Z,45.70
2019-02-06T17:34:30.507Z,47.60
2019-02-06T17:37:54.749Z,46.40
2019-02-06T17:41:05.105Z,46.80
2019-02-06T17:44:20.479Z,48.00
2019-02-06T17:47:39.996Z,50.20
2019-02-06T17:50:54.170Z,52.50
2019-02-06T17:54:03.048Z,54.50
2019-02-06T17:56:33.586Z,53.50
2019-02-06T17:59:05.285Z,53.10
2019-02-06T18:01:39.053Z,52.40
2019-02-06T18:04:16.666Z,53.50
2019-02-06T18:06:46.891Z,52.80
2019-02-06T18:09:18.333Z,52.90
2019-02-06T18:11:50.995Z,56.10
2019-02-06T18:14:21.423Z,55.30
2019-02-06T18:16:52.029Z,54.60
2019-02-06T18:19:22.371Z,51.30
2019-02-06T18:21:53.003Z,51.70
2019-02-06T18:24:25.552Z,52.10
2019-02-06T18:26:57.143Z,51.20
2019-02-06T18:29:27.746Z,51.20
2019-02-06T18:31:58.164Z,53.60
2019-02-06T18:34:34.204Z,55.00
2019-02-06T18:37:05.285Z,55.00
2019-02-06T18:39:36.035Z,55.70
2019-02-06T18:42:06.386Z,56.80
2019-02-06T18:44:36.726Z,55.20
2019-02-06T18:47:08.056Z,55.80
2019-02-06T18:49:38.294Z,53.10
2019-02-06T18:52:08.789Z,55.30
2019-02-06T18:54:42.421Z,56.70
2019-02-06T18:57:12.735Z,57.90
2019-02-06T18:59:44.474Z,58.60
2019-02-06T19:02:17.344Z,58.80
2019-02-06T19:04:48.791Z,57.80
2019-02-06T19:07:19.849Z,58.40
2019-02-06T19:09:52.810Z,59.20
2019-02-06T19:12:23.282Z,58.40
2019-02-06T19:14:54.276Z,58.30
2019-02-06T19:17:26.557Z,57.80
2019-02-06T19:19:58.805Z,58.40
2019-02-06T19:22:32.969Z,58.00
2019-02-06T19:25:05.346Z,58.80
2019-02-06T19:27:36.086Z,58.40
2019-02-06T19:30:11.765Z,58.80
2019-02-06T19:32:44.459Z,59.20
2019-02-06T19:35:14.230Z,59.00
2019-02-06T19:37:44.714Z,58.90
2019-02-06T19:40:15.390Z,58.90
2019-02-06T19:42:58.780Z,59.40
2019-02-06T19:45:22.873Z,60.00
2019-02-06T19:47:53.107Z,58.60
2019-02-06T19:50:25.779Z,58.10
2019-02-06T19:52:56.207Z,59.40
2019-02-06T19:55:32.385Z,60.00
2019-02-06T19:58:02.741Z,61.60
2019-02-06T20:00:33.262Z,60.70
2019-02-06T20:03:08.208Z,60.30
2019-02-06T20:05:38.789Z,60.30
2019-02-06T20:08:09.420Z,59.80
2019-02-06T20:10:42.202Z,60.00
2019-02-06T20:13:14.671Z,61.20
2019-02-06T20:15:44.804Z,63.10
2019-02-06T20:18:19.499Z,64.50
2019-02-06T20:20:49.952Z,64.50
2019-02-06T20:23:20.362Z,63.90
2019-02-06T20:25:50.879Z,63.70
2019-02-06T20:28:21.146Z,64.00
2019-02-06T20:30:51.541Z,64.30
2019-02-06T20:33:22.308Z,64.50
2019-02-06T20:35:53.269Z,64.40
2019-02-06T20:38:23.828Z,63.60
2019-02-06T20:40:54.158Z,59.80
2019-02-06T20:43:24.636Z,58.70
2019-02-06T20:45:55.159Z,61.10
2019-02-06T20:48:25.787Z,62.40
2019-02-06T20:50:56.077Z,62.60
2019-02-06T20:53:26.416Z,63.70
2019-02-06T20:55:56.933Z,63.30
2019-02-06T20:58:27.314Z,64.10
2019-02-06T21:01:01.493Z,64.20
2019-02-06T21:03:33.494Z,66.90
2019-02-06T21:06:06.244Z,66.60
2019-02-06T21:08:36.511Z,65.00
2019-02-06T21:11:06.793Z,66.90
2019-02-06T21:13:37.333Z,66.00
2019-02-06T21:16:07.983Z,65.30
2019-02-06T21:18:38.259Z,64.60
2019-02-06T21:21:08.580Z,64.70
2019-02-06T21:23:39.110Z,64.30
2019-02-06T21:26:09.317Z,65.40
2019-02-06T21:28:39.500Z,65.10
2019-02-06T21:31:09.835Z,66.20
2019-02-06T21:33:40.598Z,67.70
2019-02-06T21:36:10.974Z,68.40
2019-02-06T21:38:44.045Z,66.70
2019-02-06T21:41:14.244Z,65.60
2019-02-06T21:43:44.860Z,60.90
2019-02-06T21:46:15.347Z,64.90
2019-02-06T21:48:45.635Z,66.10
2019-02-06T21:51:25.576Z,67.10
2019-02-06T21:53:57.003Z,64.70
2019-02-06T21:56:29.666Z,65.70
2019-02-06T21:59:00.672Z,66.60
2019-02-06T22:01:32.776Z,69.00
2019-02-06T22:04:02.965Z,68.10
2019-02-06T22:06:33.747Z,66.90
2019-02-06T22:09:05.447Z,67.40
2019-02-06T22:11:43.063Z,68.00
2019-02-06T22:14:14.734Z,66.70
2019-02-06T22:16:47.295Z,67.50
2019-02-06T22:19:19.502Z,66.30
2019-02-06T22:21:49.768Z,66.60
2019-02-06T22:24:20.206Z,68.10
2019-02-06T22:26:50.404Z,67.50
2019-02-06T22:29:20.585Z,65.50
2019-02-06T22:31:50.882Z,67.40
2019-02-06T22:34:21.074Z,67.70
2019-02-06T22:36:53.747Z,64.60
2019-02-06T22:39:24.058Z,64.80
2019-02-06T22:41:54.180Z,66.00
2019-02-06T22:44:24.502Z,67.00
2019-02-06T22:46:55.194Z,68.20
2019-02-06T22:49:25.598Z,70.00
2019-02-06T22:51:55.719Z,69.90
2019-02-06T22:54:25.978Z,70.60
2019-02-06T22:56:58.962Z,69.30
2019-02-06T22:59:32.773Z,69.00
2019-02-06T23:02:03.599Z,67.30
2019-02-06T23:04:34.067Z,67.70
2019-02-06T23:07:07.068Z,68.00
2019-02-06T23:09:37.909Z,68.30
2019-02-06T23:12:08.991Z,68.70
2019-02-06T23:14:39.704Z,69.60
2019-02-06T23:17:12.044Z,70.40
2019-02-06T23:19:42.172Z,71.70
2019-02-06T23:22:12.514Z,70.10
2019-02-06T23:24:44.932Z,71.40
2019-02-06T23:27:15.467Z,72.00
2019-02-06T23:29:46.816Z,72.70
2019-02-06T23:32:17.023Z,73.90
2019-02-06T23:34:47.388Z,69.60
2019-02-06T23:37:17.709Z,70.30
2019-02-06T23:39:48.157Z,71.00
2019-02-06T23:42:18.438Z,67.30
2019-02-06T23:44:48.665Z,67.90
2019-02-06T23:47:18.768Z,69.00
2019-02-06T23:49:50.970Z,70.00
2019-02-06T23:52:21.787Z,70.00
2019-02-06T23:54:52.047Z,72.80
2019-02-06T23:57:24.575Z,70.40
2019-02-06T23:59:59.563Z,72.70
